createdAt,value
2017-11-09T00:05:12.061Z,81.00
2017-11-09T00:07:38.381Z,80.80
2017-11-09T00:10:04.601Z,81.00
2017-11-09T00:12:30.841Z,80.60
2017-11-09T00:14:57.058Z,81.60
2017-11-09T00:17:23.619Z,81.90
2017-11-09T00:19:49.813Z,81.50
2017-11-09T00:22:16.002Z,81.60
2017-11-09T00:24:42.612Z,81.00
2017-11-09T00:27:08.835Z,81.00
2017-11-09T00:29:35.291Z,81.00
2017-11-09T00:32:01.528Z,81.20
2017-11-09T00:34:28.093Z,81.50
2017-11-09T00:36:54.313Z,81.50
2017-11-09T00:39:20.500Z,81.30
2017-11-09T00:41:46.716Z,81.10
2017-11-09T00:44:12.924Z,81.70
2017-11-09T00:46:39.427Z,81.30
2017-11-09T00:49:05.634Z,81.00
2017-11-09T00:51:32.201Z,81.00
2017-11-09T00:53:58.413Z,81.00
2017-11-09T00:56:24.599Z,81.10
2017-11-09T00:58:50.805Z,81.10
2017-11-09T01:01:17.018Z,81.00
2017-11-09T01:03:43.239Z,80.90
2017-11-09T01:06:09.449Z,81.10
2017-11-09T01:08:36.453Z,80.80
2017-11-09T01:11:02.663Z,80.80
2017-11-09T01:13:28.899Z,81.00
2017-11-09T01:15:55.112Z,81.10
2017-11-09T01:18:21.306Z,80.90
2017-11-09T01:20:47.530Z,81.20
2017-11-09T01:23:14.704Z,81.20
2017-11-09T01:25:40.932Z,81.40
2017-11-09T01:28:07.171Z,81.40
2017-11-09T01:30:33.369Z,81.00
2017-11-09T01:32:59.602Z,81.30
2017-11-09T01:35:25.814Z,81.10
2017-11-09T01:37:52.413Z,81.20
2017-11-09T01:40:18.620Z,81.20
2017-11-09T01:42:44.860Z,80.90
2017-11-09T01:45:11.114Z,81.30
2017-11-09T01:47:37.321Z,81.20
2017-11-09T01:50:03.566Z,81.00
2017-11-09T01:52:29.778Z,81.10
2017-11-09T01:54:55.978Z,81.00
2017-11-09T01:57:22.226Z,81.20
2017-11-09T01:59:48.450Z,81.40
2017-11-09T02:02:14.726Z,81.30
2017-11-09T02:04:41.299Z,81.30
2017-11-09T02:07:07.541Z,81.30
2017-11-09T02:09:33.777Z,81.60
2017-11-09T02:12:00.034Z,81.20
2017-11-09T02:14:26.640Z,81.70
2017-11-09T02:16:52.854Z,81.70
2017-11-09T02:19:19.095Z,81.50
2017-11-09T02:21:45.338Z,81.40
2017-11-09T02:24:11.868Z,81.30
2017-11-09T02:26:38.103Z,81.40
2017-11-09T02:29:04.321Z,81.40
2017-11-09T02:31:30.565Z,81.30
2017-11-09T02:33:56.789Z,81.30
2017-11-09T02:36:23.047Z,81.00
2017-11-09T02:38:49.308Z,80.90
2017-11-09T02:41:15.576Z,81.30
2017-11-09T02:43:41.798Z,81.20
2017-11-09T02:46:08.014Z,81.30
2017-11-09T02:48:34.290Z,81.00
2017-11-09T02:51:00.925Z,81.20
2017-11-09T02:53:27.534Z,81.30
2017-11-09T02:55:53.770Z,81.30
2017-11-09T02:58:20.321Z,81.50
2017-11-09T03:00:46.553Z,81.50
2017-11-09T03:03:12.780Z,81.50
2017-11-09T03:05:39.397Z,81.80
2017-11-09T03:08:05.622Z,81.80
2017-11-09T03:10:32.149Z,81.70
2017-11-09T03:12:58.366Z,81.80
2017-11-09T03:15:24.560Z,81.70
2017-11-09T03:17:50.791Z,81.20
2017-11-09T03:20:17.000Z,81.40
2017-11-09T03:22:43.221Z,81.80
2017-11-09T03:25:09.797Z,81.90
2017-11-09T03:27:36.004Z,81.90
2017-11-09T03:30:02.715Z,82.10
2017-11-09T03:32:28.928Z,81.90
2017-11-09T03:34:55.161Z,82.00
2017-11-09T03:37:21.377Z,82.10
2017-11-09T03:39:47.585Z,81.90
2017-11-09T03:42:13.844Z,81.80
2017-11-09T03:44:40.040Z,82.00
2017-11-09T03:47:06.323Z,81.90
2017-11-09T03:49:32.545Z,81.80
2017-11-09T03:51:58.758Z,81.60
2017-11-09T03:54:24.984Z,81.70
2017-11-09T03:56:51.179Z,81.50
2017-11-09T03:59:17.423Z,81.60
2017-11-09T04:01:43.633Z,81.50
2017-11-09T04:04:09.840Z,81.50
2017-11-09T04:06:36.056Z,81.50
2017-11-09T04:09:02.281Z,81.60
2017-11-09T04:11:28.479Z,81.50
2017-11-09T04:13:55.090Z,81.70
2017-11-09T04:16:21.304Z,81.70
2017-11-09T04:18:47.550Z,81.80
2017-11-09T04:21:13.762Z,82.00
2017-11-09T04:23:39.973Z,82.10
2017-11-09T04:26:06.188Z,82.10
2017-11-09T04:28:32.439Z,82.00
2017-11-09T04:30:58.627Z,82.20
2017-11-09T04:33:24.850Z,82.20
2017-11-09T04:35:51.047Z,82.00
2017-11-09T04:38:17.281Z,82.00
2017-11-09T04:40:43.507Z,81.90
2017-11-09T04:43:09.712Z,82.00
2017-11-09T04:45:35.930Z,81.90
2017-11-09T04:48:02.130Z,82.10
2017-11-09T04:50:28.327Z,82.00
2017-11-09T04:52:54.552Z,82.00
2017-11-09T04:55:20.783Z,81.80
2017-11-09T04:57:47.002Z,81.90
2017-11-09T05:00:13.224Z,82.10
2017-11-09T05:02:39.430Z,81.80
2017-11-09T05:05:05.690Z,81.60
2017-11-09T05:07:31.876Z,81.30
2017-11-09T05:09:58.090Z,81.30
2017-11-09T05:12:24.301Z,81.80
2017-11-09T05:14:50.505Z,81.80
2017-11-09T05:17:16.747Z,81.60
2017-11-09T05:19:43.360Z,81.70
2017-11-09T05:22:09.564Z,81.70
2017-11-09T05:24:35.794Z,81.90
2017-11-09T05:27:02.010Z,81.60
2017-11-09T05:29:28.240Z,81.30
2017-11-09T05:31:54.460Z,81.30
2017-11-09T05:34:20.659Z,81.10
2017-11-09T05:36:46.910Z,81.10
2017-11-09T05:39:13.134Z,80.90
2017-11-09T05:41:39.370Z,81.20
2017-11-09T05:44:05.566Z,81.20
2017-11-09T05:46:32.586Z,81.10
2017-11-09T05:48:58.809Z,81.10
2017-11-09T05:51:25.006Z,81.20
2017-11-09T05:53:51.239Z,81.90
2017-11-09T05:56:17.482Z,82.00
2017-11-09T05:58:43.750Z,81.80
2017-11-09T06:01:10.349Z,81.20
2017-11-09T06:03:36.587Z,81.20
2017-11-09T06:06:02.826Z,81.50
2017-11-09T06:08:29.041Z,81.50
2017-11-09T06:10:55.863Z,81.60
2017-11-09T06:13:22.089Z,81.60
2017-11-09T06:15:48.335Z,81.80
2017-11-09T06:18:14.883Z,81.40
2017-11-09T06:20:41.107Z,81.40
2017-11-09T06:23:07.313Z,81.20
2017-11-09T06:25:33.542Z,81.20
2017-11-09T06:28:00.131Z,81.10
2017-11-09T06:30:26.730Z,81.30
2017-11-09T06:32:52.917Z,81.30
2017-11-09T06:35:19.134Z,81.20
2017-11-09T06:37:45.349Z,81.30
2017-11-09T06:40:12.062Z,81.30
2017-11-09T06:42:38.305Z,81.10
2017-11-09T06:45:04.884Z,81.00
2017-11-09T06:47:31.128Z,81.00
2017-11-09T06:49:57.342Z,81.30
2017-11-09T06:52:23.602Z,81.00
2017-11-09T06:54:49.838Z,80.80
2017-11-09T06:57:16.041Z,81.30
2017-11-09T06:59:42.261Z,81.20
2017-11-09T07:02:08.482Z,81.20
2017-11-09T07:04:34.724Z,81.00
2017-11-09T07:07:00.925Z,81.10
2017-11-09T07:09:27.160Z,81.10
2017-11-09T07:11:53.364Z,81.40
2017-11-09T07:14:19.557Z,81.40
2017-11-09T07:16:45.760Z,81.00
2017-11-09T07:19:11.993Z,81.10
2017-11-09T07:21:38.203Z,81.10
2017-11-09T07:24:04.442Z,81.00
2017-11-09T07:26:30.685Z,80.70
2017-11-09T07:28:57.228Z,80.90
2017-11-09T07:31:23.486Z,80.90
2017-11-09T07:33:50.110Z,80.50
2017-11-09T07:36:16.337Z,80.50
2017-11-09T07:38:42.562Z,79.90
2017-11-09T07:41:08.803Z,80.20
2017-11-09T07:43:35.419Z,80.30
2017-11-09T07:46:01.635Z,80.30
2017-11-09T07:48:27.857Z,80.00
2017-11-09T07:50:54.073Z,80.50
2017-11-09T07:53:20.332Z,79.90
2017-11-09T07:55:46.515Z,80.00
2017-11-09T07:58:13.005Z,79.70
2017-11-09T08:00:39.226Z,79.70
2017-11-09T08:03:05.438Z,79.80
2017-11-09T08:05:31.660Z,80.50
2017-11-09T08:07:57.898Z,79.90
2017-11-09T08:10:24.137Z,79.90
2017-11-09T08:12:50.357Z,79.70
2017-11-09T08:15:16.564Z,79.70
2017-11-09T08:17:42.787Z,79.80
2017-11-09T08:20:09.016Z,79.30
2017-11-09T08:22:35.257Z,79.20
2017-11-09T08:25:08.163Z,79.20
2017-11-09T08:27:35.739Z,79.10
2017-11-09T08:30:04.852Z,79.10
2017-11-09T08:32:32.910Z,79.10
2017-11-09T08:34:59.550Z,79.50
2017-11-09T08:37:26.111Z,78.70
2017-11-09T08:39:52.358Z,78.70
2017-11-09T08:42:18.593Z,78.60
2017-11-09T08:44:44.854Z,79.00
2017-11-09T08:47:11.444Z,79.50
2017-11-09T08:49:37.653Z,79.50
2017-11-09T08:52:03.895Z,79.20
2017-11-09T08:54:30.140Z,78.20
2017-11-09T08:56:56.370Z,77.30
2017-11-09T08:59:22.600Z,77.70
2017-11-09T09:01:48.833Z,79.00
2017-11-09T09:04:15.037Z,78.90
2017-11-09T09:06:41.268Z,78.60
2017-11-09T09:09:07.498Z,78.60
2017-11-09T09:11:33.769Z,79.00
2017-11-09T09:14:00.409Z,77.80
2017-11-09T09:16:26.643Z,77.80
2017-11-09T09:18:53.665Z,77.30
2017-11-09T09:21:30.782Z,77.30
2017-11-09T09:23:59.635Z,77.80
2017-11-09T09:26:30.701Z,77.80
2017-11-09T09:28:56.946Z,78.30
2017-11-09T09:31:23.222Z,77.90
2017-11-09T09:33:54.505Z,77.80
2017-11-09T09:36:25.214Z,77.40
2017-11-09T09:38:53.777Z,77.10
2017-11-09T09:41:20.079Z,77.30
2017-11-09T09:43:46.347Z,77.50
2017-11-09T09:46:12.594Z,76.40
2017-11-09T09:48:38.837Z,77.40
2017-11-09T09:51:05.105Z,77.00
2017-11-09T09:53:31.371Z,76.50
2017-11-09T09:55:57.569Z,77.30
2017-11-09T09:58:23.819Z,77.70
2017-11-09T10:00:50.074Z,77.40
2017-11-09T10:03:16.678Z,76.40
2017-11-09T10:05:42.930Z,76.40
2017-11-09T10:08:09.138Z,76.40
2017-11-09T10:10:35.422Z,76.00
2017-11-09T10:13:01.613Z,75.90
2017-11-09T10:15:27.844Z,75.90
2017-11-09T10:17:54.051Z,74.50
2017-11-09T10:20:20.550Z,74.10
2017-11-09T10:22:46.775Z,73.80
2017-11-09T10:25:12.994Z,73.60
2017-11-09T10:27:39.252Z,72.50
2017-11-09T10:30:05.496Z,71.20
2017-11-09T10:32:31.725Z,71.10
2017-11-09T10:34:57.958Z,70.50
2017-11-09T10:37:24.184Z,70.00
2017-11-09T10:39:50.463Z,69.80
2017-11-09T10:42:16.741Z,68.80
2017-11-09T10:44:42.991Z,69.70
2017-11-09T10:47:09.256Z,70.50
2017-11-09T10:49:35.501Z,71.20
2017-11-09T10:52:01.747Z,71.00
2017-11-09T10:54:27.974Z,70.30
2017-11-09T10:56:54.200Z,70.30
2017-11-09T10:59:20.464Z,69.80
2017-11-09T11:01:46.736Z,70.70
2017-11-09T11:04:12.987Z,70.80
2017-11-09T11:06:39.205Z,70.60
2017-11-09T11:09:05.443Z,69.60
2017-11-09T11:11:31.645Z,70.10
2017-11-09T11:13:57.871Z,70.40
2017-11-09T11:16:24.077Z,71.90
2017-11-09T11:18:50.630Z,71.40
2017-11-09T11:21:16.851Z,70.30
2017-11-09T11:23:43.101Z,71.60
2017-11-09T11:26:09.326Z,71.30
2017-11-09T11:28:35.574Z,71.60
2017-11-09T11:31:01.799Z,71.40
2017-11-09T11:33:28.047Z,71.30
2017-11-09T11:35:54.272Z,72.70
2017-11-09T11:38:20.463Z,73.80
2017-11-09T11:40:46.669Z,74.20
2017-11-09T11:43:12.900Z,74.70
2017-11-09T11:45:39.526Z,73.80
2017-11-09T11:48:06.107Z,75.80
2017-11-09T11:50:32.335Z,75.70
2017-11-09T11:52:58.594Z,75.20
2017-11-09T11:55:24.828Z,75.20
2017-11-09T11:57:51.460Z,74.90
2017-11-09T12:00:17.679Z,74.50
2017-11-09T12:02:43.869Z,75.60
2017-11-09T12:05:10.101Z,74.60
2017-11-09T12:07:36.313Z,73.60
2017-11-09T12:10:02.577Z,74.30
2017-11-09T12:12:28.781Z,73.80
2017-11-09T12:14:55.021Z,72.90
2017-11-09T12:17:21.240Z,73.20
2017-11-09T12:19:47.481Z,74.00
2017-11-09T12:22:13.778Z,74.50
2017-11-09T12:24:39.975Z,73.20
2017-11-09T12:27:06.738Z,73.30
2017-11-09T12:29:32.950Z,72.10
2017-11-09T12:31:59.913Z,71.80
2017-11-09T12:34:26.547Z,71.90
2017-11-09T12:36:53.163Z,69.80
2017-11-09T12:39:19.378Z,69.80
2017-11-09T12:41:45.679Z,71.40
2017-11-09T12:44:11.938Z,70.20
2017-11-09T12:46:38.182Z,70.80
2017-11-09T12:49:04.425Z,71.40
2017-11-09T12:51:30.737Z,71.40
2017-11-09T12:53:57.001Z,70.20
2017-11-09T12:56:23.518Z,69.40
2017-11-09T12:58:49.767Z,70.80
2017-11-09T13:01:15.952Z,70.70
2017-11-09T13:03:42.201Z,68.90
2017-11-09T13:06:08.434Z,71.00
2017-11-09T13:08:34.720Z,72.20
2017-11-09T13:11:00.962Z,71.90
2017-11-09T13:13:27.222Z,71.30
2017-11-09T13:15:53.886Z,69.20
2017-11-09T13:18:20.122Z,69.20
2017-11-09T13:20:46.367Z,68.70
2017-11-09T13:23:12.630Z,68.70
2017-11-09T13:25:38.845Z,68.30
2017-11-09T13:28:05.124Z,68.00
2017-11-09T13:30:31.366Z,68.60
2017-11-09T13:32:58.856Z,68.80
2017-11-09T13:35:25.091Z,68.90
2017-11-09T13:37:51.713Z,70.50
2017-11-09T13:40:17.962Z,70.50
2017-11-09T13:42:44.578Z,70.60
2017-11-09T13:45:10.813Z,70.70
2017-11-09T13:47:37.024Z,71.30
2017-11-09T13:50:03.236Z,72.30
2017-11-09T13:52:29.487Z,73.50
2017-11-09T13:54:55.721Z,74.60
2017-11-09T13:57:22.005Z,73.80
2017-11-09T13:59:48.236Z,73.80
2017-11-09T14:02:14.492Z,73.60
2017-11-09T14:04:40.712Z,73.80
2017-11-09T14:07:06.941Z,74.40
2017-11-09T14:09:33.175Z,73.80
2017-11-09T14:11:59.402Z,73.10
2017-11-09T14:14:25.616Z,74.10
2017-11-09T14:16:52.133Z,74.80
2017-11-09T14:19:18.328Z,74.40
2017-11-09T14:21:44.547Z,75.50
2017-11-09T14:24:11.071Z,76.10
2017-11-09T14:26:37.301Z,74.40
2017-11-09T14:29:03.534Z,74.40
2017-11-09T14:31:29.806Z,75.50
2017-11-09T14:33:56.013Z,76.00
2017-11-09T14:36:22.593Z,77.00
2017-11-09T14:38:51.120Z,77.00
2017-11-09T14:41:17.697Z,76.30
2017-11-09T14:43:43.992Z,76.30
2017-11-09T14:46:10.598Z,77.10
2017-11-09T14:48:36.801Z,77.00
2017-11-09T14:51:03.081Z,75.90
2017-11-09T14:53:29.691Z,77.00
2017-11-09T14:55:56.088Z,77.00
2017-11-09T14:58:22.305Z,76.40
2017-11-09T15:00:48.546Z,77.60
2017-11-09T15:03:15.226Z,77.60
2017-11-09T15:05:41.443Z,77.40
2017-11-09T15:08:07.771Z,76.90
2017-11-09T15:10:34.048Z,76.80
2017-11-09T15:13:00.326Z,76.50
2017-11-09T15:15:26.606Z,76.90
2017-11-09T15:17:53.317Z,76.50
2017-11-09T15:20:19.609Z,76.50
2017-11-09T15:22:45.842Z,76.90
2017-11-09T15:25:12.141Z,76.80
2017-11-09T15:27:38.454Z,76.00
2017-11-09T15:30:07.711Z,76.50
2017-11-09T15:32:33.994Z,76.00
2017-11-09T15:35:00.231Z,77.20
2017-11-09T15:37:26.474Z,77.40
2017-11-09T15:39:52.737Z,76.60
2017-11-09T15:42:19.063Z,77.10
2017-11-09T15:44:45.333Z,77.30
2017-11-09T15:47:11.929Z,77.50
2017-11-09T15:49:38.144Z,77.50
2017-11-09T15:52:04.462Z,77.30
2017-11-09T15:54:30.703Z,76.90
2017-11-09T15:56:56.971Z,77.40
2017-11-09T15:59:23.583Z,77.30
2017-11-09T16:01:49.818Z,77.30
2017-11-09T16:04:16.057Z,77.10
2017-11-09T16:06:45.279Z,77.80
2017-11-09T16:09:11.472Z,76.90
2017-11-09T16:11:37.784Z,77.60
2017-11-09T16:14:04.036Z,77.70
2017-11-09T16:16:30.296Z,78.00
2017-11-09T16:18:56.544Z,77.80
2017-11-09T16:21:22.747Z,78.40
2017-11-09T16:23:49.377Z,78.10
2017-11-09T16:26:15.983Z,78.40
2017-11-09T16:28:42.204Z,78.40
2017-11-09T16:31:08.454Z,78.70
2017-11-09T16:33:34.699Z,79.10
2017-11-09T16:36:01.052Z,78.90
2017-11-09T16:38:27.265Z,78.50
2017-11-09T16:40:53.477Z,78.40
2017-11-09T16:43:19.761Z,78.70
2017-11-09T16:45:46.000Z,79.10
2017-11-09T16:48:12.234Z,79.10
2017-11-09T16:50:38.471Z,79.00
2017-11-09T16:53:06.519Z,78.90
2017-11-09T16:55:32.741Z,79.40
2017-11-09T16:57:58.965Z,78.80
2017-11-09T17:00:25.226Z,79.10
2017-11-09T17:02:51.449Z,79.40
2017-11-09T17:05:17.695Z,79.20
2017-11-09T17:07:43.957Z,78.60
2017-11-09T17:10:10.199Z,79.00
2017-11-09T17:12:36.437Z,79.10
2017-11-09T17:15:02.692Z,79.00
2017-11-09T17:17:28.957Z,79.30
2017-11-09T17:19:55.211Z,79.40
2017-11-09T17:22:21.444Z,79.70
2017-11-09T17:24:47.666Z,79.60
2017-11-09T17:27:13.902Z,79.50
2017-11-09T17:29:40.112Z,78.90
2017-11-09T17:32:06.729Z,79.50
2017-11-09T17:34:32.971Z,79.20
2017-11-09T17:36:59.231Z,79.70
2017-11-09T17:39:25.511Z,79.70
2017-11-09T17:41:56.896Z,79.50
2017-11-09T17:44:23.194Z,79.50
2017-11-09T17:46:49.425Z,79.60
2017-11-09T17:49:15.666Z,79.80
2017-11-09T17:51:41.986Z,78.90
2017-11-09T17:54:09.328Z,79.80
2017-11-09T17:56:35.562Z,79.80
2017-11-09T17:59:01.811Z,78.40
2017-11-09T18:01:28.109Z,77.80
2017-11-09T18:03:54.717Z,79.10
2017-11-09T18:06:20.957Z,79.10
2017-11-09T18:08:47.213Z,79.10
2017-11-09T18:11:14.061Z,79.50
2017-11-09T18:13:40.732Z,79.80
2017-11-09T18:16:06.957Z,79.80
2017-11-09T18:18:33.202Z,79.60
2017-11-09T18:20:59.485Z,79.60
2017-11-09T18:23:25.702Z,80.00
2017-11-09T18:25:52.276Z,80.20
2017-11-09T18:28:18.523Z,80.20
2017-11-09T18:30:44.819Z,80.30
2017-11-09T18:33:11.073Z,80.10
2017-11-09T18:35:37.639Z,80.30
2017-11-09T18:38:04.801Z,80.50
2017-11-09T18:40:31.031Z,80.70
2017-11-09T18:42:57.298Z,80.90
2017-11-09T18:45:23.583Z,80.60
2017-11-09T18:47:49.837Z,80.50
2017-11-09T18:50:16.057Z,80.80
2017-11-09T18:52:42.372Z,81.10
2017-11-09T18:55:08.642Z,80.70
2017-11-09T18:57:35.156Z,80.60
2017-11-09T19:00:01.783Z,80.50
2017-11-09T19:02:27.973Z,80.50
2017-11-09T19:04:54.241Z,80.80
2017-11-09T19:07:20.492Z,80.90
2017-11-09T19:09:46.710Z,80.70
2017-11-09T19:12:13.327Z,81.30
2017-11-09T19:14:40.196Z,81.30
2017-11-09T19:17:06.453Z,81.40
2017-11-09T19:19:33.118Z,81.40
2017-11-09T19:21:59.519Z,81.00
2017-11-09T19:24:26.311Z,80.70
2017-11-09T19:26:52.594Z,80.70
2017-11-09T19:29:18.828Z,79.90
2017-11-09T19:31:45.125Z,79.60
2017-11-09T19:34:11.357Z,79.80
2017-11-09T19:36:37.605Z,80.20
2017-11-09T19:39:04.923Z,80.50
2017-11-09T19:41:31.289Z,80.90
2017-11-09T19:43:57.711Z,80.80
2017-11-09T19:46:24.047Z,81.10
2017-11-09T19:48:50.326Z,80.70
2017-11-09T19:51:16.621Z,80.60
2017-11-09T19:53:43.077Z,80.30
2017-11-09T19:56:09.364Z,80.50
2017-11-09T19:58:35.618Z,80.50
2017-11-09T20:01:03.382Z,80.20
2017-11-09T20:03:30.926Z,79.80
2017-11-09T20:05:57.640Z,79.80
2017-11-09T20:08:23.899Z,80.70
2017-11-09T20:10:50.169Z,80.30
2017-11-09T20:13:16.463Z,80.80
2017-11-09T20:15:42.866Z,81.00
2017-11-09T20:18:09.172Z,81.10
2017-11-09T20:20:36.191Z,81.10
2017-11-09T20:23:02.490Z,81.10
2017-11-09T20:25:28.758Z,80.90
2017-11-09T20:27:55.664Z,81.10
2017-11-09T20:30:22.052Z,81.30
2017-11-09T20:32:48.358Z,81.10
2017-11-09T20:35:14.742Z,81.20
2017-11-09T20:37:42.551Z,81.40
2017-11-09T20:40:08.835Z,81.40
2017-11-09T20:42:35.132Z,81.10
2017-11-09T20:45:02.765Z,81.40
2017-11-09T20:47:29.046Z,81.50
2017-11-09T20:49:55.352Z,81.60
2017-11-09T20:52:22.073Z,81.60
2017-11-09T20:54:49.112Z,82.40
2017-11-09T20:57:15.744Z,83.30
2017-11-09T20:59:42.389Z,83.70
2017-11-09T21:02:10.020Z,83.60
2017-11-09T21:04:36.374Z,83.60
2017-11-09T21:07:02.647Z,83.40
2017-11-09T21:09:29.065Z,83.40
2017-11-09T21:11:55.450Z,83.10
2017-11-09T21:14:22.464Z,83.00
2017-11-09T21:16:48.910Z,83.10
2017-11-09T21:19:15.157Z,82.90
2017-11-09T21:21:41.460Z,83.60
2017-11-09T21:24:07.769Z,83.70
2017-11-09T21:26:34.420Z,83.60
2017-11-09T21:29:00.722Z,83.60
2017-11-09T21:31:27.010Z,83.70
2017-11-09T21:33:53.252Z,83.70
2017-11-09T21:36:19.530Z,83.80
2017-11-09T21:38:45.828Z,83.90
2017-11-09T21:41:12.149Z,83.80
2017-11-09T21:43:39.319Z,83.80
2017-11-09T21:46:05.546Z,83.40
2017-11-09T21:48:32.525Z,83.40
2017-11-09T21:50:58.809Z,83.10
2017-11-09T21:53:25.072Z,83.00
2017-11-09T21:55:51.337Z,82.80
2017-11-09T21:58:17.575Z,82.60
2017-11-09T22:00:43.819Z,82.40
2017-11-09T22:03:10.032Z,82.10
2017-11-09T22:05:36.227Z,81.80
2017-11-09T22:08:02.497Z,81.70
2017-11-09T22:10:28.726Z,81.60
2017-11-09T22:12:54.993Z,81.80
2017-11-09T22:15:21.586Z,82.00
2017-11-09T22:17:48.722Z,82.00
2017-11-09T22:20:14.935Z,82.30
2017-11-09T22:22:41.167Z,82.00
2017-11-09T22:25:07.414Z,81.70
2017-11-09T22:27:33.601Z,82.20
2017-11-09T22:29:59.821Z,82.30
2017-11-09T22:32:26.778Z,82.30
2017-11-09T22:34:53.028Z,82.40
2017-11-09T22:37:19.321Z,82.40
2017-11-09T22:39:45.930Z,82.30
2017-11-09T22:42:12.173Z,82.30
2017-11-09T22:44:38.743Z,82.30
2017-11-09T22:47:04.999Z,82.30
2017-11-09T22:49:31.189Z,82.20
2017-11-09T22:51:57.776Z,82.10
2017-11-09T22:54:24.007Z,82.10
2017-11-09T22:56:50.213Z,81.50
2017-11-09T22:59:16.462Z,81.50
2017-11-09T23:01:42.669Z,81.70
2017-11-09T23:04:08.903Z,81.70
2017-11-09T23:06:35.142Z,81.90
2017-11-09T23:09:01.334Z,81.90
2017-11-09T23:11:27.585Z,81.90
2017-11-09T23:13:53.818Z,82.20
2017-11-09T23:16:20.054Z,82.50
2017-11-09T23:18:46.638Z,81.80
2017-11-09T23:21:13.310Z,82.20
2017-11-09T23:23:39.537Z,82.20
2017-11-09T23:26:06.590Z,82.40
2017-11-09T23:28:32.821Z,82.30
2017-11-09T23:30:59.043Z,82.20
2017-11-09T23:33:25.269Z,82.40
2017-11-09T23:35:51.503Z,82.00
2017-11-09T23:38:17.737Z,82.10
2017-11-09T23:40:43.965Z,81.90
2017-11-09T23:43:10.214Z,81.50
2017-11-09T23:45:36.467Z,81.60
2017-11-09T23:48:02.698Z,81.40
2017-11-09T23:50:28.920Z,81.50
2017-11-09T23:52:55.156Z,81.40
2017-11-09T23:55:21.389Z,81.70
2017-11-09T23:57:47.615Z,81.80
